OMDB/DXB METAR and TAF weather

Enter ICAO airport designator
Station Type Date Time Source
OMDB METAR 2019/04/20 18:00 UTC NOAA

OMDB 201800Z 11006KT CAVOK 32/09 Q1007 NOSIG


Station Type Date Time Source
OMDB Decoded METAR 2019/04/20 18:00 UTC NOAA

Dubai International Airport, United Arab Emirates (OMDB) 25-15N 055-20E 5M
Apr 20, 2019 - 02:00 PM EDT / 2019.04.20 1800 UTC
Wind: from the ESE (110 degrees) at 7 MPH (6 KT):0
Visibility: greater than 7 mile(s):0
Temperature: 89 F (32 C)
Dew Point: 48 F (9 C)
Relative Humidity: 24%
Pressure (altimeter): 29.74 in. Hg (1007 hPa)
ob: OMDB 201800Z 11006KT CAVOK 32/09 Q1007 NOSIG
cycle: 18

Station Type Date Time Source
OMDB TAF 2019/04/20 18:01 UTC NOAA

TAF OMDB 201651Z 2018/2200 12007KT CAVOK
BECMG 2103/2105 19012KT
BECMG 2108/2110 32015KT
BECMG 2115/2117 09007KT

Example: see airport list